Pagina principală
METAR-TAF:

METAR-TAF

Aeroporturi :

Lawrence Municipal Airport

Lawrence, Kansas, Statele Unite ale Americii

Latitudine: 39-00-30N, longitudine: 095-12-42W, elevație: 253 m

Observații meteo curente

Raportul a fost făcut în urmă cu 43 de minute, la 06:52 UTC
Vânt 4 kt de la Est
Temperatură 22°C
Umiditate 83%
Presiune 1012 hPa
Vizibilitate: 16.1 km
Cer senin

METAR: KLWC 240652Z AUTO 09004KT 10SM CLR 22/19 A2988 RMK AO1 SLP107 T02170194

Ora: 02:35 (07:35 UTC)


TAF: lipsă

Observații și prognoze meteo pentru peste 4.000 de aeroporturi (rapoarte METAR și TAF).

Stațiile disponibile sunt reprezentate pe hartă prin puncte galbene și roșii.

Țineți indicatorul mouse-ului pe punctul dorit pentru a vedea denumirea stației.

Apoi, faceți clic pentru a vedea observațiile și prognozele meteorologice.

Pentru a schimba harta: Pentru mărire, faceți clic pe butoanele verzi cu cruce neagră; pentru micșorare, pe butonul verde cu o liniuță; pentru hărți învecinate, pe săgețile verzi.


METAR-TAF: